Time;durP1;ratioP1;P1;durP2;ratioP2;P2;SDS_P1;SDS_P2;PMS_P1;PMS_P2;Temp;Humidity;BMP_temperature;BMP_pressure;BME280_temperature;BME280_humidity;BME280_pressure;Samples;Min_cycle;Max_cycle;Signal;HPM_P1;HPM_P2
2022/03/24 04:58:06;;;;;;;20.88;10.63;;;;;;;7.60;37.25;101335.72;5604985;31;81532;-55
2022/03/24 05:01:09;;;;;;;24.25;11.40;;;;;;;7.60;37.25;101335.72;5583214;32;34019;-55
2022/03/24 05:04:12;;;;;;;19.62;10.15;;;;;;;7.23;37.75;101339.50;5583403;31;33655;-54
2022/03/24 05:07:14;;;;;;;24.65;11.02;;;;;;;7.34;37.47;101327.19;5582874;32;34363;-55
2022/03/24 05:10:17;;;;;;;17.02;11.35;;;;;;;7.39;38.66;101329.97;5563824;32;34244;-55
2022/03/24 05:13:20;;;;;;;17.55;11.25;;;;;;;7.21;38.40;101324.75;5568752;32;33515;-55
2022/03/24 05:16:22;;;;;;;22.15;11.50;;;;;;;7.09;37.96;101332.78;5578385;31;33601;-54
2022/03/24 05:19:25;;;;;;;21.95;11.00;;;;;;;7.22;38.25;101337.06;5569470;32;33758;-55
2022/03/24 05:22:28;;;;;;;23.73;11.40;;;;;;;7.43;38.45;101332.97;5571182;32;33860;-54
2022/03/24 05:25:30;;;;;;;21.58;11.18;;;;;;;7.57;38.08;101336.19;5563629;32;34292;-54
2022/03/24 05:28:33;;;;;;;18.62;11.85;;;;;;;7.56;38.68;101343.38;5582466;31;33447;-55
2022/03/24 05:31:36;;;;;;;19.27;11.90;;;;;;;7.67;38.30;101339.03;5577377;31;33075;-55
2022/03/24 05:34:38;;;;;;;22.00;12.20;;;;;;;7.76;38.81;101335.75;5573240;31;34598;-55
2022/03/24 05:37:41;;;;;;;21.87;12.10;;;;;;;7.80;38.17;101335.28;5563531;32;33553;-55
2022/03/24 05:40:43;;;;;;;26.23;11.93;;;;;;;7.74;37.56;101335.19;5565312;32;33462;-55
2022/03/24 05:44:04;;;;;;;22.67;12.15;;;;;;;7.73;38.81;101330.09;5580916;32;34342;-55
2022/03/24 05:47:17;;;;;;;28.15;12.82;;;;;;;7.91;37.65;101326.41;5582568;32;33616;-55
2022/03/24 05:50:19;;;;;;;20.65;12.82;;;;;;;8.03;37.62;101329.03;5579081;31;33641;-55
2022/03/24 05:53:23;;;;;;;20.48;12.88;;;;;;;8.13;38.07;101327.34;5572493;32;33398;-55
2022/03/24 05:56:26;;;;;;;21.25;12.73;;;;;;;8.25;37.86;101324.63;5582049;31;33267;-55
2022/03/24 05:59:29;;;;;;;22.77;13.82;;;;;;;8.30;37.41;101324.69;5582365;31;33602;-55
2022/03/24 06:02:32;;;;;;;25.25;13.68;;;;;;;8.59;36.35;101324.66;5569091;32;33176;-55
2022/03/24 06:05:40;;;;;;;28.48;14.60;;;;;;;8.92;35.21;101319.28;5582043;31;33694;-55
2022/03/24 06:08:43;;;;;;;28.08;13.48;;;;;;;9.02;35.62;101323.97;5553853;32;33615;-55
2022/03/24 06:11:45;;;;;;;22.98;13.77;;;;;;;9.25;35.64;101311.44;5557743;32;34359;-55
2022/03/24 06:14:47;;;;;;;21.60;14.18;;;;;;;9.33;34.55;101314.47;5565623;32;33720;-55
2022/03/24 06:17:50;;;;;;;43.05;15.50;;;;;;;9.64;34.51;101321.00;5567172;32;33564;-55
2022/03/24 06:20:53;;;;;;;23.55;14.50;;;;;;;9.62;35.47;101312.41;5564438;32;33888;-55
2022/03/24 06:23:55;;;;;;;24.90;14.07;;;;;;;9.75;35.51;101315.75;5564507;32;33369;-54
2022/03/24 06:26:58;;;;;;;28.00;14.25;;;;;;;9.72;35.51;101309.03;5553194;32;33716;-55
2022/03/24 06:30:05;;;;;;;21.65;14.25;;;;;;;9.80;35.21;101313.97;5558284;32;34406;-55
2022/03/24 06:33:08;;;;;;;26.98;15.30;;;;;;;9.96;35.51;101301.50;5568476;32;34333;-56
2022/03/24 06:36:10;;;;;;;26.33;16.30;;;;;;;10.22;34.40;101302.56;5568407;32;33274;-56
2022/03/24 06:39:13;;;;;;;33.30;16.05;;;;;;;10.49;33.78;101299.84;5555660;32;33856;-56
2022/03/24 06:42:16;;;;;;;32.72;16.15;;;;;;;10.68;33.84;101299.44;5567521;32;33754;-55
2022/03/24 06:45:18;;;;;;;25.10;15.43;;;;;;;11.00;33.04;101296.72;5567994;32;33647;-56
2022/03/24 06:48:21;;;;;;;27.92;15.48;;;;;;;11.25;32.21;101294.13;5566766;32;33559;-56
2022/03/24 06:51:23;;;;;;;35.38;17.20;;;;;;;11.44;32.17;101294.47;5555174;32;34748;-56
2022/03/24 06:54:25;;;;;;;32.70;16.75;;;;;;;11.58;32.36;101300.16;5551617;32;34852;-55
2022/03/24 06:57:29;;;;;;;34.15;16.67;;;;;;;11.77;31.27;101287.84;5567653;32;33992;-55
2022/03/24 07:00:31;;;;;;;27.58;16.70;;;;;;;11.89;30.87;101292.22;5566910;32;33700;-56
2022/03/24 07:03:34;;;;;;;29.17;17.45;;;;;;;12.01;31.59;101295.44;5567928;32;33151;-56
2022/03/24 07:06:38;;;;;;;35.72;16.65;;;;;;;12.14;31.64;101291.41;5567890;32;33351;-56
2022/03/24 07:09:40;;;;;;;39.55;18.83;;;;;;;12.30;31.77;101290.34;5566939;32;33295;-56
2022/03/24 07:12:42;;;;;;;35.65;19.35;;;;;;;12.42;32.19;101282.03;5561278;32;33893;-56
2022/03/24 07:15:45;;;;;;;37.45;20.45;;;;;;;12.54;32.72;101282.53;5557185;32;34289;-56
2022/03/24 07:18:48;;;;;;;35.58;21.00;;;;;;;12.77;32.90;101283.03;5564966;32;33695;-55
2022/03/24 07:21:50;;;;;;;34.47;19.95;;;;;;;13.02;32.01;101279.47;5561258;32;33743;-56
2022/03/24 07:24:53;;;;;;;39.45;22.60;;;;;;;13.26;30.88;101274.28;5566726;32;33167;-55
2022/03/24 07:27:55;;;;;;;39.70;24.65;;;;;;;13.43;30.93;101274.75;5564598;32;33788;-56
2022/03/24 07:31:09;;;;;;;50.12;26.05;;;;;;;13.55;31.73;101274.44;5567550;32;34425;-56
2022/03/24 07:34:12;;;;;;;50.10;24.73;;;;;;;13.72;31.70;101274.84;5566527;32;33228;-56
2022/03/24 07:37:17;;;;;;;38.47;23.92;;;;;;;13.86;30.58;101269.62;5561490;32;34759;-56
2022/03/24 07:40:21;;;;;;;41.67;23.80;;;;;;;14.11;30.11;101268.66;5565829;32;33799;-56
2022/03/24 07:43:25;;;;;;;48.03;27.47;;;;;;;14.25;30.37;101260.72;5567662;32;34394;-55
2022/03/24 07:46:28;;;;;;;44.22;26.25;;;;;;;14.34;30.64;101264.44;5564661;32;34318;-56
2022/03/24 07:49:31;;;;;;;44.30;24.73;;;;;;;14.47;30.47;101265.62;5566939;32;33207;-56
2022/03/24 07:52:33;;;;;;;40.12;22.83;;;;;;;14.63;29.60;101263.63;5567217;32;33716;-56
2022/03/24 07:55:38;;;;;;;19.98;15.60;;;;;;;14.76;28.38;101265.66;5565439;32;33258;-56
2022/03/24 07:58:41;;;;;;;15.20;11.88;;;;;;;14.90;26.85;101258.50;5566892;32;34366;-56
2022/03/24 08:01:43;;;;;;;20.10;12.35;;;;;;;15.03;26.03;101256.97;5566380;32;33453;-57
2022/03/24 08:04:47;;;;;;;19.95;11.93;;;;;;;15.18;24.15;101251.38;5565032;32;33242;-56
2022/03/24 08:07:49;;;;;;;18.35;12.60;;;;;;;15.36;24.14;101257.91;5566867;32;33753;-56
2022/03/24 08:10:53;;;;;;;17.80;12.32;;;;;;;15.45;24.21;101252.66;5567439;32;33179;-56
2022/03/24 08:13:56;;;;;;;22.60;13.02;;;;;;;15.52;23.77;101251.19;5567756;32;33615;-56
2022/03/24 08:16:59;;;;;;;18.85;11.77;;;;;;;15.65;24.70;101251.56;5554070;32;33240;-56
2022/03/24 08:20:01;;;;;;;16.70;12.37;;;;;;;15.79;23.94;101255.16;5557278;32;33293;-56
2022/03/24 08:23:05;;;;;;;17.73;12.13;;;;;;;15.84;24.43;101252.38;5560942;32;34403;-56
2022/03/24 08:26:07;;;;;;;23.70;14.68;;;;;;;15.96;23.20;101247.34;5565553;32;34271;-56
2022/03/24 08:29:09;;;;;;;31.23;18.33;;;;;;;16.05;22.94;101249.34;5563983;32;33675;-56
2022/03/24 08:32:12;;;;;;;19.98;12.85;;;;;;;16.12;24.20;101239.75;5557274;32;33719;-56
2022/03/24 08:35:15;;;;;;;16.65;11.70;;;;;;;16.19;22.81;101240.19;5565110;32;33589;-56
2022/03/24 08:38:17;;;;;;;14.80;10.32;;;;;;;16.26;22.98;101245.22;5550988;32;33209;-56
2022/03/24 08:41:19;;;;;;;18.15;12.85;;;;;;;16.36;22.20;101239.63;5559998;32;33678;-56
2022/03/24 08:44:22;;;;;;;20.60;12.25;;;;;;;16.49;21.18;101243.47;5548712;32;34283;-56
2022/03/24 08:47:25;;;;;;;17.65;11.65;;;;;;;16.72;20.00;101241.69;5550204;32;34246;-56
2022/03/24 08:50:27;;;;;;;18.52;9.30;;;;;;;16.74;20.07;101234.03;5547834;32;33990;-56
2022/03/24 08:53:29;;;;;;;26.98;8.32;;;;;;;16.88;19.16;101228.66;5563785;32;34278;-56
2022/03/24 08:56:31;;;;;;;11.75;7.32;;;;;;;17.21;17.04;101232.03;5566256;32;33696;-56
2022/03/24 08:59:33;;;;;;;13.93;6.85;;;;;;;17.31;16.54;101233.72;5566375;32;33165;-56
2022/03/24 09:02:36;;;;;;;9.85;6.87;;;;;;;17.44;17.46;101222.03;5566431;32;34191;-56
2022/03/24 09:05:39;;;;;;;9.25;7.47;;;;;;;17.56;16.12;101224.22;5552997;32;33961;-56
2022/03/24 09:08:42;;;;;;;11.27;7.37;;;;;;;17.62;17.21;101231.94;5560714;32;33283;-56
2022/03/24 09:11:44;;;;;;;12.07;7.68;;;;;;;17.70;18.98;101224.16;5557711;32;33252;-56
2022/03/24 09:14:46;;;;;;;12.27;8.25;;;;;;;17.76;17.42;101223.78;5554887;32;33398;-56
2022/03/24 09:17:49;;;;;;;13.57;9.50;;;;;;;17.82;16.89;101232.59;5562053;32;34261;-56
2022/03/24 09:20:52;;;;;;;29.65;9.00;;;;;;;17.93;17.30;101231.22;5552112;32;33252;-56
2022/03/24 09:23:54;;;;;;;10.77;8.73;;;;;;;17.97;17.69;101225.97;5563041;32;34374;-56
2022/03/24 09:26:56;;;;;;;12.40;9.35;;;;;;;18.18;16.75;101234.41;5564800;32;33445;-56
2022/03/24 09:29:59;;;;;;;21.52;9.15;;;;;;;18.09;18.21;101226.22;5564858;32;34441;-56
2022/03/24 09:33:01;;;;;;;23.23;9.95;;;;;;;18.33;16.93;101235.94;5562401;32;33557;-56
2022/03/24 09:36:03;;;;;;;13.40;9.20;;;;;;;18.30;16.97;101231.94;5562208;32;34482;-56
2022/03/24 09:39:08;;;;;;;16.10;8.98;;;;;;;18.42;16.99;101225.94;5563320;32;34224;-56
2022/03/24 09:42:11;;;;;;;16.10;9.02;;;;;;;18.39;17.61;101221.13;5564978;32;33722;-56
2022/03/24 09:45:15;;;;;;;15.85;9.30;;;;;;;18.44;16.84;101229.94;5566573;32;33900;-57
2022/03/24 09:48:18;;;;;;;11.05;9.00;;;;;;;18.45;17.09;101230.75;5555719;32;34067;-56
2022/03/24 09:51:29;;;;;;;12.57;9.52;;;;;;;18.55;17.12;101227.75;5557702;32;34438;-56
2022/03/24 09:54:31;;;;;;;24.63;9.00;;;;;;;18.57;18.38;101232.84;5549790;32;33644;-56
2022/03/24 09:57:35;;;;;;;20.65;9.10;;;;;;;18.53;17.17;101225.34;5560480;32;33816;-56
2022/03/24 10:00:50;;;;;;;16.27;9.00;;;;;;;18.67;17.78;101233.37;5560471;32;33699;-56
2022/03/24 10:04:18;;;;;;;13.95;8.48;;;;;;;18.68;16.95;101228.75;5568408;32;33266;-56
2022/03/24 10:07:25;;;;;;;16.45;9.77;;;;;;;18.69;17.67;101230.34;5556178;32;33650;-56
2022/03/24 10:10:28;;;;;;;21.85;9.55;;;;;;;18.67;17.08;101222.50;5566779;32;33285;-56
2022/03/24 10:13:42;;;;;;;20.55;9.00;;;;;;;18.64;16.78;101231.31;5559790;32;33659;-56
2022/03/24 10:16:45;;;;;;;25.20;8.90;;;;;;;18.76;17.32;101222.56;5563311;32;33828;-56
2022/03/24 10:19:59;;;;;;;18.48;8.70;;;;;;;18.83;17.19;101227.56;5561692;32;34309;-56
2022/03/24 10:23:05;;;;;;;17.65;8.32;;;;;;;18.89;16.62;101229.81;5562833;32;34134;-56
2022/03/24 10:26:07;;;;;;;11.07;8.18;;;;;;;18.98;16.60;101218.97;5554669;32;33928;-56
2022/03/24 10:29:22;;;;;;;21.30;8.70;;;;;;;18.98;16.57;101222.47;5556798;32;34174;-56
2022/03/24 10:32:30;;;;;;;14.73;9.40;;;;;;;19.11;16.01;101218.03;5565300;32;34403;-56
2022/03/24 10:35:35;;;;;;;10.88;8.60;;;;;;;19.16;16.64;101214.34;5557578;32;33698;-56
2022/03/24 10:38:41;;;;;;;14.07;8.38;;;;;;;19.09;16.04;101220.25;5561428;32;34207;-56
2022/03/24 10:41:44;;;;;;;12.05;8.65;;;;;;;19.22;16.12;101216.59;5564642;32;33800;-56
2022/03/24 10:45:15;;;;;;;12.73;9.20;;;;;;;19.22;16.59;101208.44;5565832;32;33533;-56
2022/03/24 10:48:21;;;;;;;24.30;9.50;;;;;;;19.25;16.76;101205.09;5567673;32;33326;-56
2022/03/24 10:51:33;;;;;;;12.32;8.85;;;;;;;19.46;16.99;101205.25;5563999;32;33335;-56
2022/03/24 10:54:48;;;;;;;12.70;9.30;;;;;;;19.64;16.57;101206.09;5565291;32;33672;-56
2022/03/24 10:57:50;;;;;;;12.40;8.68;;;;;;;19.61;16.03;101208.62;5566807;32;33622;-56
2022/03/24 11:00:57;;;;;;;12.37;8.27;;;;;;;19.36;15.40;101199.34;5567151;32;34217;-56
2022/03/24 11:03:59;;;;;;;10.38;8.15;;;;;;;19.40;15.78;101194.88;5566869;32;33871;-56
2022/03/24 11:07:02;;;;;;;10.98;8.75;;;;;;;19.45;15.55;101197.44;5566984;32;34371;-56
2022/03/24 11:10:12;;;;;;;8.75;7.70;;;;;;;19.47;15.40;101192.50;5562764;32;33352;-56
2022/03/24 11:13:27;;;;;;;12.55;8.15;;;;;;;19.52;15.61;101196.94;5564215;32;33088;-56
2022/03/24 11:16:31;;;;;;;14.52;9.13;;;;;;;19.44;15.00;101193.13;5567656;32;33692;-56
2022/03/24 11:19:36;;;;;;;11.27;8.68;;;;;;;19.66;15.34;101189.44;5563751;32;33184;-56
2022/03/24 11:22:59;;;;;;;13.48;8.35;;;;;;;19.69;15.65;101184.16;5562314;32;34335;-56
2022/03/24 11:26:03;;;;;;;14.32;7.93;;;;;;;19.82;14.59;101182.37;5567675;32;33652;-56
2022/03/24 11:29:06;;;;;;;11.95;8.45;;;;;;;19.78;14.71;101173.28;5555459;32;33638;-56
2022/03/24 11:32:09;;;;;;;14.48;8.05;;;;;;;19.85;14.42;101172.78;5561865;32;33772;-56
2022/03/24 11:35:13;;;;;;;12.77;7.93;;;;;;;19.87;14.61;101165.91;5563022;32;34525;-56
2022/03/24 11:38:16;;;;;;;11.00;7.62;;;;;;;19.80;14.11;101162.87;5556628;32;34123;-56
2022/03/24 11:41:30;;;;;;;11.32;8.30;;;;;;;19.85;14.63;101161.91;5566427;32;34603;-56
2022/03/24 11:44:40;;;;;;;11.45;9.23;;;;;;;19.78;14.96;101156.97;5560831;32;33341;-56
2022/03/24 11:48:00;;;;;;;9.77;8.10;;;;;;;19.84;14.95;101160.31;5556862;32;32314;-56
2022/03/24 11:51:05;;;;;;;20.48;8.82;;;;;;;19.93;14.17;101153.72;5566013;32;33515;-56
2022/03/24 11:54:08;;;;;;;18.17;8.80;;;;;;;19.78;15.55;101151.50;5557643;32;33890;-56
2022/03/24 11:57:31;;;;;;;13.13;9.25;;;;;;;19.83;15.07;101153.25;5562821;32;33950;-56
2022/03/24 12:00:36;;;;;;;11.75;7.97;;;;;;;19.84;14.89;101144.00;5554028;32;33786;-56
2022/03/24 12:03:58;;;;;;;42.42;8.45;;;;;;;19.88;14.48;101136.75;5558400;32;33752;-56
2022/03/24 12:07:01;;;;;;;19.08;6.68;;;;;;;19.88;13.79;101148.44;5561386;32;33738;-55
2022/03/24 12:10:13;;;;;;;14.13;7.32;;;;;;;19.77;13.46;101141.75;5559292;32;33225;-56
2022/03/24 12:13:21;;;;;;;12.02;9.27;;;;;;;19.71;13.74;101129.44;5562732;32;33218;-56
2022/03/24 12:16:25;;;;;;;10.65;8.93;;;;;;;19.76;14.57;101133.91;5558841;32;33657;-56
2022/03/24 12:19:47;;;;;;;13.20;7.95;;;;;;;19.76;15.05;101136.62;5555311;32;34480;-56
2022/03/24 12:22:59;;;;;;;12.43;8.13;;;;;;;19.82;14.49;101140.78;5558979;32;33396;-56
2022/03/24 12:26:10;;;;;;;10.77;7.60;;;;;;;19.68;14.98;101125.44;5566188;32;33784;-56
2022/03/24 12:29:18;;;;;;;11.82;7.57;;;;;;;19.77;14.47;101117.28;5560081;32;33628;-56
2022/03/24 12:32:28;;;;;;;8.88;6.12;;;;;;;19.88;13.93;101126.69;5565911;32;33432;-56
2022/03/24 12:35:49;;;;;;;11.52;7.30;;;;;;;19.84;13.70;101117.56;5564855;32;34348;-56
2022/03/24 12:38:54;;;;;;;14.50;8.50;;;;;;;19.88;14.38;101117.72;5556560;32;34440;-56
2022/03/24 12:42:13;;;;;;;11.65;7.87;;;;;;;19.84;14.31;101112.13;5558925;32;34338;-56
2022/03/24 12:45:22;;;;;;;12.73;7.95;;;;;;;19.90;14.62;101116.28;5556572;32;33688;-56
2022/03/24 12:48:41;;;;;;;11.52;8.52;;;;;;;20.02;14.96;101103.91;5557733;32;33297;-56
2022/03/24 12:52:08;;;;;;;15.70;9.13;;;;;;;20.11;14.98;101104.66;5563687;32;33275;-56
2022/03/24 12:55:45;;;;;;;17.87;9.57;;;;;;;20.16;15.10;101110.75;5558265;32;34345;-56
2022/03/24 12:58:52;;;;;;;14.87;9.57;;;;;;;20.08;15.71;101108.84;5551606;32;34088;-56
2022/03/24 13:01:55;;;;;;;14.75;9.07;;;;;;;20.07;15.85;101109.97;5563759;32;34126;-56
2022/03/24 13:04:58;;;;;;;14.25;9.07;;;;;;;20.10;15.79;101108.53;5566046;32;34118;-56
2022/03/24 13:08:05;;;;;;;16.98;11.25;;;;;;;20.08;15.42;101099.88;5565252;32;33749;-56
2022/03/24 13:11:08;;;;;;;15.13;10.18;;;;;;;20.02;16.37;101087.56;5561303;32;34330;-56
2022/03/24 13:14:11;;;;;;;11.45;7.95;;;;;;;20.08;16.00;101103.41;5565196;32;33756;-56
2022/03/24 13:17:15;;;;;;;11.82;8.43;;;;;;;20.08;15.14;101084.34;5564120;32;33655;-56
2022/03/24 13:20:19;;;;;;;17.12;9.05;;;;;;;20.09;15.67;101091.37;5561905;32;33506;-56
2022/03/24 13:23:28;;;;;;;14.20;8.48;;;;;;;20.23;15.41;101084.91;5568203;32;33232;-56
2022/03/24 13:26:32;;;;;;;13.95;8.43;;;;;;;20.15;15.47;101084.63;5568449;32;33647;-56
2022/03/24 13:29:44;;;;;;;10.98;8.27;;;;;;;20.06;15.41;101080.34;5568596;32;33692;-56
2022/03/24 13:32:51;;;;;;;10.07;7.85;;;;;;;20.08;15.79;101072.66;5568950;32;33315;-56
2022/03/24 13:35:53;;;;;;;13.77;9.15;;;;;;;20.10;16.71;101073.94;5566971;32;34357;-56
2022/03/24 13:38:56;;;;;;;11.85;8.40;;;;;;;20.31;15.58;101065.03;5565833;32;33650;-56
2022/03/24 13:41:59;;;;;;;12.45;8.18;;;;;;;20.33;17.74;101068.19;5574638;31;33514;-56
2022/03/24 13:45:03;;;;;;;10.75;7.05;;;;;;;20.32;15.42;101059.22;5567419;32;33068;-56
2022/03/24 13:48:08;;;;;;;14.07;7.72;;;;;;;20.28;15.05;101055.59;5569588;32;33212;-56
2022/03/24 13:51:12;;;;;;;10.25;7.07;;;;;;;20.40;15.57;101049.44;5564989;32;33938;-56
2022/03/24 13:54:19;;;;;;;14.77;7.37;;;;;;;20.38;15.00;101038.84;5569711;32;33667;-56
2022/03/24 13:57:23;;;;;;;11.25;7.68;;;;;;;20.42;15.16;101044.44;5566823;32;33808;-56
2022/03/24 14:00:42;;;;;;;16.30;8.60;;;;;;;20.48;14.73;101045.84;5567895;32;33790;-56
2022/03/24 14:03:49;;;;;;;14.05;7.50;;;;;;;20.40;14.44;101036.63;5567509;32;33377;-56
2022/03/24 14:07:06;;;;;;;15.50;8.27;;;;;;;20.41;14.73;101034.69;5569436;32;33663;-56
2022/03/24 14:10:08;;;;;;;10.98;7.30;;;;;;;20.39;14.68;101035.00;5567608;32;33706;-56
2022/03/24 14:13:16;;;;;;;12.18;7.57;;;;;;;20.30;14.69;101031.56;5568990;32;33778;-56
2022/03/24 14:16:29;;;;;;;11.38;7.40;;;;;;;20.32;14.82;101029.28;5567723;32;34449;-56
2022/03/24 14:19:32;;;;;;;11.32;7.28;;;;;;;20.41;14.84;101021.06;5565450;32;33886;-56
2022/03/24 14:22:46;;;;;;;10.77;6.53;;;;;;;20.37;15.04;101031.81;5564967;32;34315;-56
2022/03/24 14:25:49;;;;;;;10.90;7.65;;;;;;;20.39;14.53;101026.03;5561966;32;34439;-56
2022/03/24 14:28:51;;;;;;;10.98;6.50;;;;;;;20.46;14.10;101009.16;5564863;32;33199;-56
2022/03/24 14:32:13;;;;;;;9.82;6.28;;;;;;;20.53;13.99;101015.72;5562788;32;34321;-56
2022/03/24 14:35:23;;;;;;;10.23;6.22;;;;;;;20.57;13.57;101011.22;5562678;32;34114;-56
2022/03/24 14:38:31;;;;;;;9.10;5.97;;;;;;;20.52;14.28;101011.41;5568213;32;34380;-56
2022/03/24 14:41:36;;;;;;;11.25;6.30;;;;;;;20.54;14.40;101002.91;5566498;32;33426;-56
2022/03/24 14:44:38;;;;;;;9.82;6.25;;;;;;;20.54;14.11;101009.16;5568208;32;33288;-56
2022/03/24 14:47:41;;;;;;;11.18;6.80;;;;;;;20.50;14.48;101018.28;5566247;32;33626;-56
2022/03/24 14:50:45;;;;;;;9.18;6.55;;;;;;;20.53;14.33;100999.41;5567136;32;33808;-56
2022/03/24 14:53:48;;;;;;;14.35;6.55;;;;;;;20.46;14.73;100996.34;5568932;32;34379;-56
2022/03/24 14:56:50;;;;;;;10.52;7.65;;;;;;;20.39;14.83;100994.16;5561842;32;33112;-56
2022/03/24 14:59:53;;;;;;;11.73;8.10;;;;;;;20.48;14.88;101002.28;5568813;31;33365;-56
2022/03/24 15:02:55;;;;;;;9.10;7.30;;;;;;;20.45;14.94;100996.69;5553868;32;33698;-56
2022/03/24 15:05:57;;;;;;;10.32;8.35;;;;;;;20.40;15.09;100997.69;5569231;32;33823;-56
2022/03/24 15:09:00;;;;;;;10.27;8.00;;;;;;;20.32;15.58;100993.09;5566369;32;34432;-56
2022/03/24 15:12:03;;;;;;;13.85;7.97;;;;;;;20.37;15.00;100982.81;5566537;32;33726;-56
2022/03/24 15:18:28;;;;;;;12.90;7.65;;;;;;;20.27;15.43;100985.13;5565670;32;33728;-57
2022/03/24 15:21:31;;;;;;;13.68;7.87;;;;;;;20.32;15.18;100985.72;5568079;32;33584;-56
2022/03/24 15:24:33;;;;;;;9.77;7.05;;;;;;;20.38;15.13;100984.41;5561510;32;34425;-56
2022/03/24 15:27:36;;;;;;;11.32;7.10;;;;;;;20.27;15.24;100982.41;5549899;32;33117;-56
2022/03/24 15:30:39;;;;;;;10.35;6.18;;;;;;;20.28;15.27;100978.56;5566172;32;33699;-57
2022/03/24 15:33:41;;;;;;;10.30;6.70;;;;;;;20.23;15.03;100979.56;5568733;32;33989;-56
2022/03/24 15:36:43;;;;;;;9.20;6.50;;;;;;;20.25;15.03;100985.44;5566228;32;33710;-56
2022/03/24 15:39:45;;;;;;;10.77;6.05;;;;;;;20.24;14.75;100980.34;5551964;32;33686;-56
2022/03/24 15:42:48;;;;;;;8.73;6.50;;;;;;;20.15;14.52;100989.34;5564171;32;34481;-56
2022/03/24 15:45:50;;;;;;;11.68;6.78;;;;;;;20.05;14.73;100984.28;5562317;32;34306;-56
2022/03/24 15:48:53;;;;;;;7.80;5.95;;;;;;;20.01;14.60;100977.13;5567284;32;34344;-56
2022/03/24 15:51:56;;;;;;;17.85;6.47;;;;;;;20.00;14.55;100981.78;5556527;32;34208;-56
2022/03/24 15:54:58;;;;;;;12.35;6.72;;;;;;;19.99;14.66;100990.25;5566288;32;34430;-56
2022/03/24 15:58:00;;;;;;;9.82;6.70;;;;;;;20.00;14.53;100979.06;5561966;32;33349;-56
2022/03/24 16:01:03;;;;;;;12.07;6.57;;;;;;;19.94;14.76;100989.31;5566231;32;34328;-56
2022/03/24 16:04:06;;;;;;;9.15;6.93;;;;;;;19.87;14.64;100986.31;5566331;32;33754;-56
2022/03/24 16:07:08;;;;;;;8.40;6.40;;;;;;;19.78;15.00;100982.06;5568464;32;32957;-56
2022/03/24 16:10:13;;;;;;;11.75;6.97;;;;;;;19.70;14.99;100981.75;5568123;32;33783;-56
2022/03/24 16:13:16;;;;;;;10.98;7.25;;;;;;;19.64;15.42;100995.88;5568647;32;33949;-56
2022/03/24 16:16:19;;;;;;;10.75;7.45;;;;;;;19.69;15.40;100974.72;5568526;32;33728;-56
2022/03/24 16:19:22;;;;;;;10.60;7.10;;;;;;;19.64;15.14;100987.72;5568005;32;34247;-56
2022/03/24 16:22:25;;;;;;;15.40;7.95;;;;;;;19.59;15.28;100991.38;5568353;32;33656;-56
2022/03/24 16:25:28;;;;;;;14.48;8.07;;;;;;;19.47;15.41;100992.06;5568503;32;33759;-56
2022/03/24 16:28:31;;;;;;;12.43;7.82;;;;;;;19.47;15.63;100994.78;5568232;32;33769;-56
2022/03/24 16:31:34;;;;;;;13.80;7.80;;;;;;;19.39;15.86;100992.87;5568483;32;33783;-55
2022/03/24 16:34:37;;;;;;;10.73;7.60;;;;;;;19.42;15.73;100994.16;5568112;32;33241;-56
2022/03/24 16:37:39;;;;;;;11.77;8.30;;;;;;;19.33;15.95;100996.87;5567858;32;34292;-57
2022/03/24 16:40:41;;;;;;;10.98;8.85;;;;;;;19.30;16.15;100999.44;5567833;32;34511;-55
2022/03/24 16:43:43;;;;;;;10.93;9.02;;;;;;;19.21;16.36;101003.00;5567888;32;33762;-56
